createdAt,value
2022-09-12T00:01:23.124Z,96555.06
2022-09-12T00:03:58.821Z,96552.81
2022-09-12T00:06:28.372Z,96556.94
2022-09-12T00:08:57.084Z,96554.53
2022-09-12T00:11:24.051Z,96556.53
2022-09-12T00:13:50.509Z,96556.00
2022-09-12T00:16:20.210Z,96561.78
2022-09-12T00:18:47.295Z,96552.09
2022-09-12T00:21:14.369Z,96557.81
2022-09-12T00:23:40.739Z,96560.94
2022-09-12T00:26:07.943Z,96563.28
2022-09-12T00:28:36.672Z,96556.34
2022-09-12T00:31:09.246Z,96553.75
2022-09-12T00:33:36.692Z,96560.81
2022-09-12T00:36:08.787Z,96562.94
2022-09-12T00:38:38.374Z,96557.00
2022-09-12T00:41:06.315Z,96558.09
2022-09-12T00:43:34.243Z,96553.94
2022-09-12T00:46:26.754Z,96550.41
2022-09-12T00:49:03.752Z,96554.56
2022-09-12T00:51:33.896Z,96551.53
2022-09-12T00:54:05.516Z,96549.47
2022-09-12T00:56:32.895Z,96537.16
2022-09-12T00:59:14.049Z,96536.56
2022-09-12T01:01:43.639Z,96540.09
2022-09-12T01:04:12.715Z,96539.56
2022-09-12T01:06:41.654Z,96536.56
2022-09-12T01:09:09.465Z,96532.41
2022-09-12T01:11:38.782Z,96539.19
2022-09-12T01:14:06.027Z,96532.75
2022-09-12T01:16:36.144Z,96523.66
2022-09-12T01:19:37.001Z,96526.03
2022-09-12T01:22:40.666Z,96522.75
2022-09-12T01:25:55.112Z,96516.81
2022-09-12T01:28:58.751Z,96512.88
2022-09-12T01:31:34.535Z,96515.13
2022-09-12T01:34:13.115Z,96514.44
2022-09-12T01:37:00.376Z,96515.81
2022-09-12T01:40:01.294Z,96522.75
2022-09-12T01:42:54.909Z,96511.56
2022-09-12T01:45:24.040Z,96515.19
2022-09-12T01:47:56.417Z,96508.72
2022-09-12T01:50:27.984Z,96496.28
2022-09-12T01:53:04.637Z,96501.28
2022-09-12T01:55:36.938Z,96495.97
2022-09-12T01:58:18.548Z,96502.16
2022-09-12T02:00:59.768Z,96499.94
2022-09-12T02:03:44.820Z,96492.00
2022-09-12T02:06:41.823Z,96496.19
2022-09-12T02:09:12.866Z,96499.50
2022-09-12T02:11:43.447Z,96489.88
2022-09-12T02:14:14.612Z,96498.00
2022-09-12T02:17:04.735Z,96501.81
2022-09-12T02:19:37.031Z,96499.19
2022-09-12T02:22:05.025Z,96500.06
2022-09-12T02:24:43.559Z,96498.75
2022-09-12T02:27:15.195Z,96500.38
2022-09-12T02:29:44.531Z,96497.09
2022-09-12T02:32:32.778Z,96491.38
2022-09-12T02:35:07.265Z,96492.53
2022-09-12T02:37:53.045Z,96492.81
2022-09-12T02:40:19.473Z,96488.16
2022-09-12T02:42:46.121Z,96493.97
2022-09-12T02:45:12.963Z,96489.50
2022-09-12T02:47:49.096Z,96494.81
2022-09-12T02:50:15.821Z,96484.59
2022-09-12T02:52:42.847Z,96478.59
2022-09-12T02:55:11.563Z,96490.50
2022-09-12T02:57:38.329Z,96484.88
2022-09-12T03:00:06.156Z,96486.72
2022-09-12T03:02:49.803Z,96489.22
2022-09-12T03:05:24.819Z,96483.47
2022-09-12T03:08:06.558Z,96484.13
2022-09-12T03:10:37.555Z,96487.59
2022-09-12T03:13:32.367Z,96485.28
2022-09-12T03:16:23.885Z,96486.75
2022-09-12T03:19:27.751Z,96490.25
2022-09-12T03:22:09.210Z,96482.31
2022-09-12T03:24:41.047Z,96485.25
2022-09-12T03:27:14.526Z,96485.91
2022-09-12T03:29:43.517Z,96477.34
2022-09-12T03:32:10.066Z,96486.63
2022-09-12T03:34:36.441Z,96485.63
2022-09-12T03:37:02.846Z,96490.59
2022-09-12T03:39:29.365Z,96487.97
2022-09-12T03:41:56.415Z,96489.13
2022-09-12T03:44:23.911Z,96489.94
2022-09-12T03:46:50.500Z,96488.75
2022-09-12T03:49:17.639Z,96483.47
2022-09-12T03:51:44.383Z,96486.47
2022-09-12T03:54:11.722Z,96487.97
2022-09-12T03:56:38.680Z,96482.81
2022-09-12T03:59:06.627Z,96491.09
2022-09-12T04:01:33.728Z,96485.81
2022-09-12T04:04:00.321Z,96487.13
2022-09-12T04:06:26.662Z,96481.69
2022-09-12T04:08:54.700Z,96486.97
2022-09-12T04:11:22.134Z,96492.09
2022-09-12T04:13:48.772Z,96493.09
2022-09-12T04:16:16.598Z,96498.38
2022-09-12T04:18:43.271Z,96497.38
2022-09-12T04:21:12.113Z,96496.53
2022-09-12T04:23:39.107Z,96488.97
2022-09-12T04:26:09.012Z,96495.72
2022-09-12T04:28:37.074Z,96488.47
2022-09-12T04:31:09.173Z,96491.25
2022-09-12T04:33:36.617Z,96501.53
2022-09-12T04:36:08.450Z,96504.16
2022-09-12T04:38:36.185Z,96500.19
2022-09-12T04:41:21.044Z,96496.53
2022-09-12T04:43:51.641Z,96496.38
2022-09-12T04:46:21.420Z,96498.19
2022-09-12T04:48:50.526Z,96485.97
2022-09-12T04:51:22.955Z,96490.41
2022-09-12T04:53:51.889Z,96496.88
2022-09-12T04:56:20.403Z,96495.06
2022-09-12T04:58:46.851Z,96495.72
2022-09-12T05:01:16.108Z,96501.50
2022-09-12T05:03:44.040Z,96505.47
2022-09-12T05:06:13.241Z,96503.50
2022-09-12T05:08:39.859Z,96502.16
2022-09-12T05:11:12.669Z,96505.97
2022-09-12T05:13:40.048Z,96501.66
2022-09-12T05:16:08.113Z,96502.00
2022-09-12T05:18:36.197Z,96500.38
2022-09-12T05:21:05.725Z,96504.16
2022-09-12T05:23:32.287Z,96505.78
2022-09-12T05:26:00.126Z,96508.28
2022-09-12T05:28:31.244Z,96501.31
2022-09-12T05:31:10.416Z,96500.03
2022-09-12T05:33:38.191Z,96507.78
2022-09-12T05:36:06.730Z,96509.09
2022-09-12T05:38:37.304Z,96504.47
2022-09-12T05:41:16.923Z,96495.25
2022-09-12T05:43:46.211Z,96505.47
2022-09-12T05:46:15.939Z,96510.75
2022-09-12T05:48:44.130Z,96513.06
2022-09-12T05:51:14.214Z,96516.38
2022-09-12T05:53:41.715Z,96515.38
2022-09-12T05:56:13.404Z,96523.94
2022-09-12T05:58:42.870Z,96525.28
2022-09-12T06:01:15.150Z,96533.34
2022-09-12T06:03:44.530Z,96523.66
2022-09-12T06:06:13.618Z,96530.22
2022-09-12T06:08:45.525Z,96531.72
2022-09-12T06:11:14.790Z,96531.56
2022-09-12T06:13:42.531Z,96533.50
2022-09-12T06:16:18.041Z,96532.53
2022-09-12T06:18:55.815Z,96527.56
2022-09-12T06:21:23.889Z,96534.50
2022-09-12T06:23:50.195Z,96529.59
2022-09-12T06:26:18.364Z,96535.34
2022-09-12T06:28:45.734Z,96536.50
2022-09-12T06:31:15.477Z,96533.34
2022-09-12T06:33:44.314Z,96527.78
2022-09-12T06:36:12.806Z,96532.72
2022-09-12T06:38:40.352Z,96536.50
2022-09-12T06:41:08.959Z,96536.84
2022-09-12T06:43:35.432Z,96533.88
2022-09-12T06:46:02.543Z,96538.97
2022-09-12T06:48:29.391Z,96539.81
2022-09-12T06:51:01.130Z,96534.19
2022-09-12T06:53:29.931Z,96541.63
2022-09-12T06:56:07.726Z,96541.97
2022-09-12T06:58:35.823Z,96541.16
2022-09-12T07:01:15.185Z,96539.66
2022-09-12T07:03:42.219Z,96533.22
2022-09-12T07:06:10.919Z,96539.66
2022-09-12T07:08:38.657Z,96535.66
2022-09-12T07:11:23.048Z,96539.81
2022-09-12T07:13:51.689Z,96537.66
2022-09-12T07:16:19.988Z,96537.81
2022-09-12T07:18:55.121Z,96534.81
2022-09-12T07:21:21.791Z,96542.41
2022-09-12T07:23:48.662Z,96540.25
2022-09-12T07:26:16.195Z,96532.59
2022-09-12T07:28:42.902Z,96534.81
2022-09-12T07:31:15.919Z,96536.09
2022-09-12T07:33:43.237Z,96533.13
2022-09-12T07:36:18.334Z,96529.69
2022-09-12T07:38:46.435Z,96525.63
2022-09-12T07:41:19.933Z,96523.25
2022-09-12T07:43:46.842Z,96521.91
2022-09-12T07:46:14.760Z,96524.69
2022-09-12T07:48:41.097Z,96532.63
2022-09-12T07:51:12.044Z,96529.97
2022-09-12T07:53:40.417Z,96522.72
2022-09-12T07:56:08.481Z,96524.44
2022-09-12T07:58:36.431Z,96519.75
2022-09-12T08:01:08.956Z,96516.97
2022-09-12T08:03:36.200Z,96518.16
2022-09-12T08:06:14.757Z,96517.25
2022-09-12T08:08:41.954Z,96522.81
2022-09-12T08:11:11.507Z,96520.28
2022-09-12T08:13:39.387Z,96525.47
2022-09-12T08:16:08.952Z,96520.97
2022-09-12T08:18:36.452Z,96521.72
2022-09-12T08:21:07.533Z,96528.66
2022-09-12T08:23:34.486Z,96526.75
2022-09-12T08:26:06.304Z,96523.63
2022-09-12T08:28:35.396Z,96526.50
2022-09-12T08:31:06.514Z,96528.22
2022-09-12T08:33:33.620Z,96527.59
2022-09-12T08:36:27.191Z,96524.66
2022-09-12T08:39:02.215Z,96521.34
2022-09-12T08:41:34.705Z,96525.09
2022-09-12T08:44:26.263Z,96522.75
2022-09-12T08:47:10.044Z,96517.75
2022-09-12T08:49:45.343Z,96520.75
2022-09-12T08:52:17.120Z,96530.03
2022-09-12T08:54:45.418Z,96520.97
2022-09-12T08:57:14.455Z,96527.84
2022-09-12T08:59:45.795Z,96527.75
2022-09-12T09:02:32.053Z,96520.41
2022-09-12T09:05:24.452Z,96508.59
2022-09-12T09:08:17.373Z,96519.59
2022-09-12T09:11:16.802Z,96513.53
2022-09-12T09:14:17.177Z,96515.66
2022-09-12T09:16:46.355Z,96504.56
2022-09-12T09:19:19.306Z,96509.41
2022-09-12T09:22:00.706Z,96505.84
2022-09-12T09:24:38.182Z,96506.16
2022-09-12T09:27:36.784Z,96502.91
2022-09-12T09:29:59.506Z,96512.25
2022-09-12T09:32:36.717Z,96499.34
2022-09-12T09:35:15.627Z,96508.50
2022-09-12T09:37:54.550Z,96505.63
2022-09-12T09:40:30.905Z,96501.28
2022-09-12T09:43:20.178Z,96501.03
2022-09-12T09:45:47.958Z,96502.00
2022-09-12T09:48:22.667Z,96498.91
2022-09-12T09:50:50.008Z,96499.03
2022-09-12T09:53:28.285Z,96495.56
2022-09-12T09:55:56.701Z,96495.44
2022-09-12T09:58:29.881Z,96495.25
2022-09-12T10:01:02.160Z,96485.75
2022-09-12T10:03:31.907Z,96493.84
2022-09-12T10:06:23.364Z,96484.09
2022-09-12T10:08:50.241Z,96484.63
2022-09-12T10:11:16.502Z,96489.91
2022-09-12T10:13:56.858Z,96475.50
2022-09-12T10:16:30.943Z,96478.72
2022-09-12T10:19:00.106Z,96479.31
2022-09-12T10:21:47.438Z,96488.56
2022-09-12T10:24:25.174Z,96481.47
2022-09-12T10:26:58.081Z,96478.97
2022-09-12T10:29:29.453Z,96479.81
2022-09-12T10:31:58.989Z,96471.34
2022-09-12T10:34:28.047Z,96471.59
2022-09-12T10:36:59.978Z,96467.78
2022-09-12T10:39:26.853Z,96464.34
2022-09-12T10:41:53.218Z,96461.63
2022-09-12T10:44:34.510Z,96462.75
2022-09-12T10:47:20.323Z,96464.66
2022-09-12T10:49:46.685Z,96461.53
2022-09-12T10:52:20.304Z,96465.53
2022-09-12T10:54:47.183Z,96467.28
2022-09-12T10:57:39.741Z,96467.09
2022-09-12T11:00:16.948Z,96463.59
2022-09-12T11:02:57.360Z,96466.53
2022-09-12T11:06:01.521Z,96456.47
2022-09-12T11:09:02.974Z,96456.72
2022-09-12T11:11:59.518Z,96453.25
2022-09-12T11:14:44.342Z,96444.81
2022-09-12T11:17:49.188Z,96437.22
2022-09-12T11:20:40.834Z,96437.66
2022-09-12T11:23:44.667Z,96436.81
2022-09-12T11:26:32.959Z,96436.00
2022-09-12T11:28:59.220Z,96431.69
2022-09-12T11:31:56.231Z,96434.38
2022-09-12T11:34:40.996Z,96426.31
2022-09-12T11:37:48.859Z,96425.69
2022-09-12T11:40:38.813Z,96419.75
2022-09-12T11:43:22.065Z,96422.91
2022-09-12T11:45:49.266Z,96424.94
2022-09-12T11:48:59.203Z,96418.69
2022-09-12T11:51:46.457Z,96415.13
2022-09-12T11:54:22.790Z,96425.09
2022-09-12T11:56:55.933Z,96422.38
2022-09-12T11:59:25.627Z,96415.19
2022-09-12T12:01:59.118Z,96412.25
2022-09-12T12:04:35.223Z,96410.56
2022-09-12T12:07:10.876Z,96406.69
2022-09-12T12:09:47.652Z,96402.06
2022-09-12T12:12:22.307Z,96404.03
2022-09-12T12:14:51.124Z,96392.41
2022-09-12T12:17:19.998Z,96392.28
2022-09-12T12:19:50.818Z,96389.38
2022-09-12T12:22:22.261Z,96393.47
2022-09-12T12:25:08.860Z,96388.22
2022-09-12T12:27:44.402Z,96393.47
2022-09-12T12:30:29.275Z,96393.66
2022-09-12T12:33:10.858Z,96380.44
2022-09-12T12:35:42.727Z,96387.66
2022-09-12T12:38:31.040Z,96382.16
2022-09-12T12:41:19.164Z,96374.97
2022-09-12T12:43:50.707Z,96376.19
2022-09-12T12:46:19.926Z,96371.28
2022-09-12T12:49:04.764Z,96368.22
2022-09-12T12:51:46.885Z,96365.25
2022-09-12T12:54:32.303Z,96360.94
2022-09-12T12:57:17.595Z,96357.66
2022-09-12T12:59:56.965Z,96355.53
2022-09-12T13:02:32.010Z,96358.41
2022-09-12T13:05:01.253Z,96353.25
2022-09-12T13:07:38.053Z,96346.22
2022-09-12T13:10:07.169Z,96332.91
2022-09-12T13:12:45.911Z,96336.34
2022-09-12T13:15:36.864Z,96332.63
2022-09-12T13:18:06.782Z,96326.78
2022-09-12T13:20:44.890Z,96320.47
2022-09-12T13:23:25.956Z,96334.03
2022-09-12T13:25:54.951Z,96332.41
2022-09-12T13:28:21.600Z,96327.66
2022-09-12T13:31:02.059Z,96322.94
2022-09-12T13:33:43.092Z,96312.66
2022-09-12T13:36:53.325Z,96307.16
2022-09-12T13:39:29.765Z,96310.13
2022-09-12T13:42:38.148Z,96321.72
2022-09-12T13:45:07.671Z,96308.50
2022-09-12T13:47:41.497Z,96300.66
2022-09-12T13:50:14.241Z,96296.41
2022-09-12T13:52:40.645Z,96295.72
2022-09-12T13:55:20.658Z,96289.00
2022-09-12T13:57:57.991Z,96285.63
2022-09-12T14:00:24.280Z,96287.28
2022-09-12T14:03:10.947Z,96285.63
2022-09-12T14:05:39.759Z,96286.94
2022-09-12T14:08:08.893Z,96279.06
2022-09-12T14:10:39.270Z,96287.44
2022-09-12T14:13:17.768Z,96283.00
2022-09-12T14:15:46.979Z,96286.06
2022-09-12T14:18:24.088Z,96281.53
2022-09-12T14:20:54.911Z,96285.91
2022-09-12T14:23:28.460Z,96283.47
2022-09-12T14:25:56.227Z,96279.06
2022-09-12T14:28:23.910Z,96279.44
2022-09-12T14:31:02.755Z,96269.59
2022-09-12T14:33:33.051Z,96268.63
2022-09-12T14:36:12.081Z,96264.91
2022-09-12T14:38:44.013Z,96270.38
2022-09-12T14:41:13.371Z,96264.69
2022-09-12T14:43:45.581Z,96269.66
2022-09-12T14:46:17.445Z,96261.34
2022-09-12T14:48:48.801Z,96259.41
2022-09-12T14:51:51.456Z,96255.06
2022-09-12T14:54:30.193Z,96262.16
2022-09-12T14:57:03.260Z,96262.72
2022-09-12T14:59:35.826Z,96256.56
2022-09-12T15:02:20.428Z,96258.28
2022-09-12T15:04:49.471Z,96257.78
2022-09-12T15:07:41.224Z,96260.00
2022-09-12T15:10:21.983Z,96248.19
2022-09-12T15:12:49.131Z,96255.22
2022-09-12T15:15:18.547Z,96250.19
2022-09-12T15:17:45.104Z,96243.88
2022-09-12T15:20:13.336Z,96246.00
2022-09-12T15:22:42.151Z,96247.94
2022-09-12T15:25:12.215Z,96244.13
2022-09-12T15:27:40.834Z,96246.00
2022-09-12T15:30:09.717Z,96249.31
2022-09-12T15:32:37.067Z,96246.22
2022-09-12T15:35:03.836Z,96233.03
2022-09-12T15:37:30.944Z,96232.41
2022-09-12T15:39:57.304Z,96236.31
2022-09-12T15:42:29.248Z,96231.63
2022-09-12T15:44:59.430Z,96229.56
2022-09-12T15:47:28.201Z,96218.22
2022-09-12T15:49:54.506Z,96216.53
2022-09-12T15:52:20.819Z,96212.94
2022-09-12T15:54:47.167Z,96212.00
2022-09-12T15:57:13.463Z,96223.66
2022-09-12T15:59:39.768Z,96217.22
2022-09-12T16:02:06.801Z,96221.03
2022-09-12T16:04:33.166Z,96219.44
2022-09-12T16:06:59.549Z,96218.38
2022-09-12T16:09:25.831Z,96220.31
2022-09-12T16:11:52.273Z,96212.44
2022-09-12T16:14:19.284Z,96209.19
2022-09-12T16:16:53.355Z,96213.81
2022-09-12T16:19:20.167Z,96214.34
2022-09-12T16:21:46.804Z,96212.72
2022-09-12T16:24:13.112Z,96201.88
2022-09-12T16:26:39.503Z,96207.56
2022-09-12T16:29:05.894Z,96209.19
2022-09-12T16:31:32.253Z,96203.22
2022-09-12T16:33:58.605Z,96211.91
2022-09-12T16:36:24.884Z,96208.09
2022-09-12T16:38:53.342Z,96214.59
2022-09-12T16:41:21.752Z,96209.19
2022-09-12T16:43:48.497Z,96207.56
2022-09-12T16:46:23.065Z,96204.88
2022-09-12T16:48:53.164Z,96201.63
2022-09-12T16:51:22.250Z,96197.81
2022-09-12T16:53:49.405Z,96193.19
2022-09-12T16:56:15.777Z,96195.41
2022-09-12T16:58:43.067Z,96188.31
2022-09-12T17:01:12.126Z,96188.25
2022-09-12T17:03:39.003Z,96190.03
2022-09-12T17:06:12.920Z,96189.63
2022-09-12T17:08:42.959Z,96190.88
2022-09-12T17:11:15.689Z,96198.09
2022-09-12T17:14:04.022Z,96199.91
2022-09-12T17:16:33.929Z,96203.88
2022-09-12T17:19:03.148Z,96199.63
2022-09-12T17:21:29.614Z,96201.84
2022-09-12T17:23:55.983Z,96196.97
2022-09-12T17:26:22.525Z,96201.50
2022-09-12T17:28:48.934Z,96199.47
2022-09-12T17:31:15.724Z,96200.84
2022-09-12T17:33:42.171Z,96202.44
2022-09-12T17:36:11.511Z,96208.19
2022-09-12T17:38:39.624Z,96207.16
2022-09-12T17:41:08.334Z,96203.16
2022-09-12T17:43:37.989Z,96205.13
2022-09-12T17:46:04.967Z,96209.63
2022-09-12T17:48:31.335Z,96198.34
2022-09-12T17:50:58.977Z,96200.97
2022-09-12T17:53:25.374Z,96200.16
2022-09-12T17:55:54.338Z,96203.50
2022-09-12T17:58:20.867Z,96200.47
2022-09-12T18:01:05.739Z,96201.91
2022-09-12T18:03:32.035Z,96202.28
2022-09-12T18:05:58.331Z,96206.75
2022-09-12T18:08:24.681Z,96209.31
2022-09-12T18:10:52.320Z,96208.72
2022-09-12T18:13:18.607Z,96211.53
2022-09-12T18:15:44.963Z,96213.81
2022-09-12T18:18:11.335Z,96214.63
2022-09-12T18:20:37.657Z,96214.84
2022-09-12T18:23:04.641Z,96224.81
2022-09-12T18:25:30.948Z,96222.34
2022-09-12T18:27:57.424Z,96221.91
2022-09-12T18:30:23.897Z,96215.41
2022-09-12T18:32:50.572Z,96222.06
2022-09-12T18:35:17.131Z,96226.38
2022-09-12T18:37:43.915Z,96225.44
2022-09-12T18:40:10.801Z,96224.94
2022-09-12T18:42:37.112Z,96225.31
2022-09-12T18:45:03.638Z,96225.06
2022-09-12T18:47:30.062Z,96237.78
2022-09-12T18:49:56.397Z,96229.59
2022-09-12T18:52:22.806Z,96230.28
2022-09-12T18:54:49.449Z,96233.50
2022-09-12T18:57:15.782Z,96228.44
2022-09-12T18:59:42.168Z,96237.88
2022-09-12T19:02:15.757Z,96237.38
2022-09-12T19:04:42.183Z,96240.47
2022-09-12T19:07:08.576Z,96243.09
2022-09-12T19:09:34.943Z,96239.78
2022-09-12T19:12:01.485Z,96244.34
2022-09-12T19:14:27.898Z,96236.94
2022-09-12T19:16:54.280Z,96235.72
2022-09-12T19:19:21.483Z,96229.63
2022-09-12T19:21:47.892Z,96236.50
2022-09-12T19:24:14.702Z,96231.34
2022-09-12T19:26:41.519Z,96231.06
2022-09-12T19:29:08.307Z,96231.44
2022-09-12T19:31:34.962Z,96229.50
2022-09-12T19:34:03.000Z,96234.75
2022-09-12T19:36:46.735Z,96222.78
2022-09-12T19:39:14.727Z,96226.97
2022-09-12T19:41:41.205Z,96221.50
2022-09-12T19:44:07.671Z,96221.28
2022-09-12T19:46:34.126Z,96225.53
2022-09-12T19:49:00.455Z,96221.78
2022-09-12T19:51:26.787Z,96224.16
2022-09-12T19:53:53.553Z,96219.00
2022-09-12T19:56:20.662Z,96218.22
2022-09-12T19:58:52.272Z,96226.53
2022-09-12T20:01:25.014Z,96237.44
2022-09-12T20:03:54.999Z,96238.03
2022-09-12T20:06:21.430Z,96238.25
2022-09-12T20:08:48.090Z,96246.06
2022-09-12T20:11:17.553Z,96250.25
2022-09-12T20:13:44.966Z,96247.41
2022-09-12T20:16:21.272Z,96252.97
2022-09-12T20:18:52.937Z,96259.56
2022-09-12T20:21:24.940Z,96262.28
2022-09-12T20:23:51.297Z,96261.50
2022-09-12T20:26:17.757Z,96253.91
2022-09-12T20:28:44.050Z,96252.38
2022-09-12T20:31:13.958Z,96249.31
2022-09-12T20:33:40.489Z,96252.75
2022-09-12T20:36:09.907Z,96255.50
2022-09-12T20:38:36.923Z,96241.53
2022-09-12T20:41:05.297Z,96244.00
2022-09-12T20:43:31.870Z,96241.78
2022-09-12T20:45:58.274Z,96242.25
2022-09-12T20:48:25.212Z,96239.63
2022-09-12T20:50:51.499Z,96242.09
2022-09-12T20:53:17.903Z,96238.56
2022-09-12T20:55:51.408Z,96242.69
2022-09-12T20:58:18.272Z,96246.56
2022-09-12T21:00:45.180Z,96243.13
2022-09-12T21:03:12.268Z,96233.88
2022-09-12T21:05:38.647Z,96237.59
2022-09-12T21:08:05.983Z,96233.50
2022-09-12T21:10:32.471Z,96233.06
2022-09-12T21:12:58.817Z,96230.63
2022-09-12T21:15:25.249Z,96234.50
2022-09-12T21:17:52.452Z,96225.25
2022-09-12T21:20:19.163Z,96222.41
2022-09-12T21:22:45.518Z,96229.38
2022-09-12T21:25:11.885Z,96225.28
2022-09-12T21:27:38.193Z,96226.94
2022-09-12T21:30:05.443Z,96230.81
2022-09-12T21:32:37.033Z,96234.50
2022-09-12T21:35:05.113Z,96234.72
2022-09-12T21:37:32.080Z,96225.28
2022-09-12T21:39:59.222Z,96230.63
2022-09-12T21:42:25.670Z,96222.03
2022-09-12T21:44:52.169Z,96230.00
2022-09-12T21:47:18.800Z,96230.59
2022-09-12T21:49:45.115Z,96227.75
2022-09-12T21:52:12.845Z,96231.41
2022-09-12T21:54:39.398Z,96230.63
2022-09-12T21:57:06.084Z,96234.13
2022-09-12T21:59:32.513Z,96228.97
2022-09-12T22:01:58.841Z,96230.00
2022-09-12T22:04:26.225Z,96222.81
2022-09-12T22:06:52.788Z,96223.16
2022-09-12T22:09:19.119Z,96227.31
2022-09-12T22:11:45.421Z,96237.56
2022-09-12T22:14:11.730Z,96235.53
2022-09-12T22:16:38.019Z,96226.09
2022-09-12T22:19:04.310Z,96232.63
2022-09-12T22:21:30.612Z,96232.19
2022-09-12T22:24:15.531Z,96232.97
2022-09-12T22:26:46.183Z,96226.84
2022-09-12T22:29:13.305Z,96229.28
2022-09-12T22:31:42.843Z,96231.31
2022-09-12T22:34:11.409Z,96225.94
2022-09-12T22:36:39.188Z,96219.22
2022-09-12T22:39:08.649Z,96220.84
2022-09-12T22:41:35.064Z,96218.19
2022-09-12T22:44:05.310Z,96216.56
2022-09-12T22:46:32.545Z,96213.66
2022-09-12T22:49:06.777Z,96216.31
2022-09-12T22:51:33.832Z,96218.44
2022-09-12T22:54:03.281Z,96227.03
2022-09-12T22:56:29.581Z,96212.69
2022-09-12T22:58:55.956Z,96213.50
2022-09-12T23:01:22.796Z,96219.56
2022-09-12T23:03:49.299Z,96216.78
2022-09-12T23:06:16.562Z,96219.31
2022-09-12T23:08:43.279Z,96210.16
2022-09-12T23:11:13.081Z,96203.91
2022-09-12T23:13:42.386Z,96205.03
2022-09-12T23:16:15.619Z,96210.41
2022-09-12T23:18:41.999Z,96212.53
2022-09-12T23:21:10.331Z,96207.59
2022-09-12T23:23:37.557Z,96208.06
2022-09-12T23:26:13.146Z,96196.63
2022-09-12T23:28:40.849Z,96190.72
2022-09-12T23:31:09.614Z,96201.97
2022-09-12T23:33:36.308Z,96204.16
2022-09-12T23:36:06.113Z,96198.56
2022-09-12T23:38:33.837Z,96199.94
2022-09-12T23:41:01.417Z,96194.00
2022-09-12T23:43:27.981Z,96197.72
2022-09-12T23:45:54.333Z,96202.22
2022-09-12T23:48:20.816Z,96201.09
2022-09-12T23:50:48.671Z,96204.63
2022-09-12T23:53:16.990Z,96196.66
2022-09-12T23:55:44.737Z,96184.53
2022-09-12T23:58:11.539Z,96186.56
